sensor_id;sensor_type;location;lat;lon;timestamp;P1;durP1;ratioP1;P2;durP2;ratioP2
32365;SDS011;18837;46.832;16.838;2022-07-06T00:02:05;3.03;;;2.83;;
32365;SDS011;18837;46.832;16.838;2022-07-06T00:04:31;3.20;;;3.00;;
32365;SDS011;18837;46.832;16.838;2022-07-06T00:06:56;3.37;;;3.07;;
32365;SDS011;18837;46.832;16.838;2022-07-06T00:09:22;2.97;;;2.77;;
32365;SDS011;18837;46.832;16.838;2022-07-06T00:11:48;2.97;;;2.77;;
32365;SDS011;18837;46.832;16.838;2022-07-06T00:14:13;3.20;;;2.97;;
32365;SDS011;18837;46.832;16.838;2022-07-06T00:16:39;2.80;;;2.60;;
32365;SDS011;18837;46.832;16.838;2022-07-06T00:19:05;2.93;;;2.73;;
32365;SDS011;18837;46.832;16.838;2022-07-06T00:21:31;3.70;;;3.00;;
32365;SDS011;18837;46.832;16.838;2022-07-06T00:23:56;2.83;;;2.63;;
32365;SDS011;18837;46.832;16.838;2022-07-06T00:26:23;3.20;;;2.90;;
32365;SDS011;18837;46.832;16.838;2022-07-06T00:28:50;3.10;;;2.90;;
32365;SDS011;18837;46.832;16.838;2022-07-06T00:31:16;3.53;;;3.10;;
32365;SDS011;18837;46.832;16.838;2022-07-06T00:33:42;3.07;;;2.87;;
32365;SDS011;18837;46.832;16.838;2022-07-06T00:36:08;2.87;;;2.67;;
32365;SDS011;18837;46.832;16.838;2022-07-06T00:38:33;3.60;;;2.80;;
32365;SDS011;18837;46.832;16.838;2022-07-06T00:40:59;2.90;;;2.70;;
32365;SDS011;18837;46.832;16.838;2022-07-06T00:43:25;2.80;;;2.60;;
32365;SDS011;18837;46.832;16.838;2022-07-06T01:12:44;3.17;;;2.87;;
32365;SDS011;18837;46.832;16.838;2022-07-06T01:15:12;3.00;;;2.80;;
32365;SDS011;18837;46.832;16.838;2022-07-06T01:17:39;3.60;;;3.30;;
32365;SDS011;18837;46.832;16.838;2022-07-06T01:22:34;3.17;;;2.93;;
32365;SDS011;18837;46.832;16.838;2022-07-06T01:25:00;3.27;;;3.07;;
32365;SDS011;18837;46.832;16.838;2022-07-06T01:27:26;4.90;;;3.30;;
32365;SDS011;18837;46.832;16.838;2022-07-06T01:29:52;3.30;;;3.07;;
32365;SDS011;18837;46.832;16.838;2022-07-06T01:32:18;3.47;;;3.17;;
32365;SDS011;18837;46.832;16.838;2022-07-06T01:34:47;3.20;;;3.00;;
32365;SDS011;18837;46.832;16.838;2022-07-06T01:37:12;3.23;;;3.03;;
32365;SDS011;18837;46.832;16.838;2022-07-06T01:39:38;3.50;;;3.30;;
32365;SDS011;18837;46.832;16.838;2022-07-06T01:42:04;4.50;;;3.30;;
32365;SDS011;18837;46.832;16.838;2022-07-06T01:44:30;4.73;;;3.23;;
32365;SDS011;18837;46.832;16.838;2022-07-06T02:06:00;3.50;;;3.20;;
32365;SDS011;18837;46.832;16.838;2022-07-06T02:08:26;3.50;;;3.30;;
32365;SDS011;18837;46.832;16.838;2022-07-06T02:10:51;3.73;;;3.13;;
32365;SDS011;18837;46.832;16.838;2022-07-06T02:13:17;3.23;;;3.03;;
32365;SDS011;18837;46.832;16.838;2022-07-06T02:15:43;3.40;;;3.13;;
32365;SDS011;18837;46.832;16.838;2022-07-06T02:18:08;3.23;;;3.03;;
32365;SDS011;18837;46.832;16.838;2022-07-06T02:20:34;3.63;;;3.37;;
32365;SDS011;18837;46.832;16.838;2022-07-06T02:23:00;3.67;;;3.20;;
32365;SDS011;18837;46.832;16.838;2022-07-06T02:25:25;3.00;;;2.80;;
32365;SDS011;18837;46.832;16.838;2022-07-06T02:27:51;3.90;;;3.20;;
32365;SDS011;18837;46.832;16.838;2022-07-06T02:30:17;4.30;;;2.93;;
32365;SDS011;18837;46.832;16.838;2022-07-06T02:32:43;3.13;;;2.93;;
32365;SDS011;18837;46.832;16.838;2022-07-06T02:35:08;3.50;;;3.20;;
32365;SDS011;18837;46.832;16.838;2022-07-06T02:37:34;3.17;;;2.97;;
32365;SDS011;18837;46.832;16.838;2022-07-06T02:40:00;3.30;;;2.97;;
32365;SDS011;18837;46.832;16.838;2022-07-06T02:42:26;3.00;;;2.80;;
32365;SDS011;18837;46.832;16.838;2022-07-06T02:44:52;4.23;;;3.23;;
32365;SDS011;18837;46.832;16.838;2022-07-06T02:47:25;3.27;;;2.97;;
32365;SDS011;18837;46.832;16.838;2022-07-06T02:49:51;2.97;;;2.77;;
32365;SDS011;18837;46.832;16.838;2022-07-06T03:22:27;3.57;;;2.90;;
32365;SDS011;18837;46.832;16.838;2022-07-06T03:24:54;3.20;;;3.00;;
32365;SDS011;18837;46.832;16.838;2022-07-06T03:27:19;3.33;;;3.13;;
32365;SDS011;18837;46.832;16.838;2022-07-06T03:29:45;3.40;;;3.10;;
32365;SDS011;18837;46.832;16.838;2022-07-06T03:32:11;2.90;;;2.70;;
32365;SDS011;18837;46.832;16.838;2022-07-06T03:34:37;4.70;;;3.10;;
32365;SDS011;18837;46.832;16.838;2022-07-06T03:37:03;3.63;;;3.20;;
32365;SDS011;18837;46.832;16.838;2022-07-06T03:39:28;3.33;;;3.03;;
32365;SDS011;18837;46.832;16.838;2022-07-06T03:41:54;3.30;;;3.00;;
32365;SDS011;18837;46.832;16.838;2022-07-06T03:44:19;3.00;;;2.80;;
32365;SDS011;18837;46.832;16.838;2022-07-06T03:46:45;4.03;;;3.23;;
32365;SDS011;18837;46.832;16.838;2022-07-06T03:49:11;3.27;;;3.07;;
32365;SDS011;18837;46.832;16.838;2022-07-06T03:51:37;3.00;;;2.80;;
32365;SDS011;18837;46.832;16.838;2022-07-06T03:54:04;3.03;;;2.83;;
32365;SDS011;18837;46.832;16.838;2022-07-06T03:56:30;4.67;;;3.40;;
32365;SDS011;18837;46.832;16.838;2022-07-06T03:58:59;3.17;;;2.97;;
32365;SDS011;18837;46.832;16.838;2022-07-06T04:01:26;3.03;;;2.83;;
32365;SDS011;18837;46.832;16.838;2022-07-06T04:03:51;3.93;;;2.90;;
32365;SDS011;18837;46.832;16.838;2022-07-06T04:06:17;3.23;;;3.00;;
32365;SDS011;18837;46.832;16.838;2022-07-06T04:08:43;5.00;;;3.10;;
32365;SDS011;18837;46.832;16.838;2022-07-06T04:11:09;3.17;;;2.97;;
32365;SDS011;18837;46.832;16.838;2022-07-06T04:13:35;3.03;;;2.77;;
32365;SDS011;18837;46.832;16.838;2022-07-06T04:19:31;3.10;;;2.87;;
32365;SDS011;18837;46.832;16.838;2022-07-06T04:25:23;3.10;;;2.90;;
32365;SDS011;18837;46.832;16.838;2022-07-06T04:27:49;3.87;;;3.00;;
32365;SDS011;18837;46.832;16.838;2022-07-06T04:30:18;3.53;;;3.23;;
32365;SDS011;18837;46.832;16.838;2022-07-06T04:32:45;3.40;;;3.10;;
32365;SDS011;18837;46.832;16.838;2022-07-06T04:35:11;3.70;;;3.00;;
32365;SDS011;18837;46.832;16.838;2022-07-06T04:37:37;3.77;;;2.80;;
32365;SDS011;18837;46.832;16.838;2022-07-06T04:40:03;3.37;;;3.07;;
32365;SDS011;18837;46.832;16.838;2022-07-06T04:42:29;3.00;;;2.80;;
32365;SDS011;18837;46.832;16.838;2022-07-06T04:44:55;3.40;;;3.10;;
32365;SDS011;18837;46.832;16.838;2022-07-06T04:47:21;3.43;;;3.13;;
32365;SDS011;18837;46.832;16.838;2022-07-06T04:49:47;3.17;;;2.97;;
32365;SDS011;18837;46.832;16.838;2022-07-06T04:52:13;3.50;;;3.20;;
32365;SDS011;18837;46.832;16.838;2022-07-06T04:54:38;4.10;;;3.20;;
32365;SDS011;18837;46.832;16.838;2022-07-06T04:57:04;3.03;;;2.83;;
32365;SDS011;18837;46.832;16.838;2022-07-06T04:59:30;3.33;;;2.90;;
32365;SDS011;18837;46.832;16.838;2022-07-06T05:01:59;3.00;;;2.70;;
32365;SDS011;18837;46.832;16.838;2022-07-06T05:04:24;3.30;;;3.07;;
32365;SDS011;18837;46.832;16.838;2022-07-06T05:06:50;3.27;;;2.97;;
32365;SDS011;18837;46.832;16.838;2022-07-06T05:09:16;4.13;;;3.07;;
32365;SDS011;18837;46.832;16.838;2022-07-06T05:11:42;3.87;;;3.10;;
32365;SDS011;18837;46.832;16.838;2022-07-06T05:14:09;4.13;;;2.80;;
32365;SDS011;18837;46.832;16.838;2022-07-06T05:16:35;3.40;;;3.10;;
32365;SDS011;18837;46.832;16.838;2022-07-06T05:19:01;3.60;;;3.30;;
32365;SDS011;18837;46.832;16.838;2022-07-06T05:21:26;3.33;;;3.13;;
32365;SDS011;18837;46.832;16.838;2022-07-06T05:23:52;3.07;;;2.77;;
32365;SDS011;18837;46.832;16.838;2022-07-06T05:26:18;2.90;;;2.67;;
32365;SDS011;18837;46.832;16.838;2022-07-06T05:28:43;3.13;;;2.93;;
32365;SDS011;18837;46.832;16.838;2022-07-06T05:31:09;3.23;;;2.90;;
32365;SDS011;18837;46.832;16.838;2022-07-06T05:33:35;3.47;;;3.10;;
32365;SDS011;18837;46.832;16.838;2022-07-06T05:36:01;2.73;;;2.53;;
32365;SDS011;18837;46.832;16.838;2022-07-06T05:38:28;3.20;;;3.00;;
32365;SDS011;18837;46.832;16.838;2022-07-06T05:40:54;3.17;;;2.97;;
32365;SDS011;18837;46.832;16.838;2022-07-06T05:43:20;3.20;;;3.00;;
32365;SDS011;18837;46.832;16.838;2022-07-06T05:45:45;3.10;;;2.90;;
32365;SDS011;18837;46.832;16.838;2022-07-06T05:48:11;3.00;;;2.80;;
32365;SDS011;18837;46.832;16.838;2022-07-06T05:50:55;3.10;;;2.50;;
32365;SDS011;18837;46.832;16.838;2022-07-06T05:53:21;4.20;;;2.80;;
32365;SDS011;18837;46.832;16.838;2022-07-06T05:55:47;4.40;;;2.73;;
32365;SDS011;18837;46.832;16.838;2022-07-06T05:58:13;3.53;;;2.70;;
32365;SDS011;18837;46.832;16.838;2022-07-06T06:00:39;3.77;;;2.80;;
32365;SDS011;18837;46.832;16.838;2022-07-06T06:03:04;4.63;;;2.87;;
32365;SDS011;18837;46.832;16.838;2022-07-06T06:05:31;3.27;;;2.97;;
32365;SDS011;18837;46.832;16.838;2022-07-06T06:07:57;2.97;;;2.70;;
32365;SDS011;18837;46.832;16.838;2022-07-06T06:20:42;3.10;;;2.90;;
32365;SDS011;18837;46.832;16.838;2022-07-06T06:23:08;4.23;;;2.90;;
32365;SDS011;18837;46.832;16.838;2022-07-06T06:25:35;2.40;;;2.20;;
32365;SDS011;18837;46.832;16.838;2022-07-06T06:28:02;2.90;;;2.60;;
32365;SDS011;18837;46.832;16.838;2022-07-06T06:30:29;3.03;;;2.80;;
32365;SDS011;18837;46.832;16.838;2022-07-06T06:35:44;3.07;;;2.87;;
32365;SDS011;18837;46.832;16.838;2022-07-06T06:38:10;3.10;;;2.63;;
32365;SDS011;18837;46.832;16.838;2022-07-06T06:54:18;2.77;;;2.57;;
32365;SDS011;18837;46.832;16.838;2022-07-06T09:39:20;2.00;;;1.50;;
32365;SDS011;18837;46.832;16.838;2022-07-06T09:41:54;2.03;;;1.57;;
32365;SDS011;18837;46.832;16.838;2022-07-06T09:44:28;1.30;;;1.20;;
32365;SDS011;18837;46.832;16.838;2022-07-06T09:46:55;1.50;;;1.40;;
32365;SDS011;18837;46.832;16.838;2022-07-06T09:49:22;2.27;;;1.40;;
32365;SDS011;18837;46.832;16.838;2022-07-06T09:51:55;2.00;;;1.73;;
32365;SDS011;18837;46.832;16.838;2022-07-06T09:54:26;1.50;;;1.40;;
32365;SDS011;18837;46.832;16.838;2022-07-06T09:56:52;1.67;;;1.57;;
32365;SDS011;18837;46.832;16.838;2022-07-06T09:59:20;2.43;;;1.40;;
32365;SDS011;18837;46.832;16.838;2022-07-06T10:01:50;1.70;;;1.37;;
32365;SDS011;18837;46.832;16.838;2022-07-06T10:04:18;2.20;;;1.80;;
32365;SDS011;18837;46.832;16.838;2022-07-06T10:06:45;1.40;;;1.30;;
32365;SDS011;18837;46.832;16.838;2022-07-06T10:09:11;1.80;;;1.70;;
32365;SDS011;18837;46.832;16.838;2022-07-06T10:11:40;2.40;;;1.80;;
32365;SDS011;18837;46.832;16.838;2022-07-06T10:14:12;1.80;;;1.70;;
32365;SDS011;18837;46.832;16.838;2022-07-06T10:16:53;1.90;;;1.67;;
32365;SDS011;18837;46.832;16.838;2022-07-06T10:19:24;1.40;;;1.30;;
32365;SDS011;18837;46.832;16.838;2022-07-06T10:21:51;1.53;;;1.43;;
32365;SDS011;18837;46.832;16.838;2022-07-06T10:24:17;1.60;;;1.50;;
32365;SDS011;18837;46.832;16.838;2022-07-06T10:26:45;1.87;;;1.50;;
32365;SDS011;18837;46.832;16.838;2022-07-06T10:29:12;2.00;;;1.80;;
32365;SDS011;18837;46.832;16.838;2022-07-06T10:31:46;1.53;;;1.40;;
32365;SDS011;18837;46.832;16.838;2022-07-06T10:34:14;1.67;;;1.10;;
32365;SDS011;18837;46.832;16.838;2022-07-06T10:36:43;1.60;;;1.50;;
32365;SDS011;18837;46.832;16.838;2022-07-06T10:39:13;3.00;;;1.50;;
32365;SDS011;18837;46.832;16.838;2022-07-06T10:41:57;1.30;;;1.20;;
32365;SDS011;18837;46.832;16.838;2022-07-06T10:44:24;2.37;;;1.87;;
32365;SDS011;18837;46.832;16.838;2022-07-06T10:46:55;1.90;;;1.40;;
32365;SDS011;18837;46.832;16.838;2022-07-06T10:49:22;1.63;;;1.53;;
32365;SDS011;18837;46.832;16.838;2022-07-06T10:51:50;1.70;;;1.60;;
32365;SDS011;18837;46.832;16.838;2022-07-06T10:54:17;1.57;;;1.40;;
32365;SDS011;18837;46.832;16.838;2022-07-06T10:59:16;1.50;;;1.40;;
32365;SDS011;18837;46.832;16.838;2022-07-06T11:02:33;1.90;;;1.67;;
32365;SDS011;18837;46.832;16.838;2022-07-06T11:04:35;1.47;;;1.37;;
32365;SDS011;18837;46.832;16.838;2022-07-06T11:07:08;1.93;;;1.70;;
32365;SDS011;18837;46.832;16.838;2022-07-06T11:09:35;1.50;;;1.40;;
32365;SDS011;18837;46.832;16.838;2022-07-06T11:12:15;2.67;;;1.53;;
32365;SDS011;18837;46.832;16.838;2022-07-06T11:14:45;1.70;;;1.60;;
32365;SDS011;18837;46.832;16.838;2022-07-06T11:17:12;1.70;;;1.60;;
32365;SDS011;18837;46.832;16.838;2022-07-06T11:19:38;2.03;;;1.47;;
32365;SDS011;18837;46.832;16.838;2022-07-06T11:22:21;1.60;;;1.50;;
32365;SDS011;18837;46.832;16.838;2022-07-06T11:24:50;2.13;;;1.50;;
32365;SDS011;18837;46.832;16.838;2022-07-06T11:27:22;1.60;;;1.50;;
32365;SDS011;18837;46.832;16.838;2022-07-06T11:29:48;1.67;;;1.57;;
32365;SDS011;18837;46.832;16.838;2022-07-06T11:32:13;1.70;;;1.60;;
32365;SDS011;18837;46.832;16.838;2022-07-06T11:34:43;1.60;;;1.50;;
32365;SDS011;18837;46.832;16.838;2022-07-06T11:37:10;1.70;;;1.60;;
32365;SDS011;18837;46.832;16.838;2022-07-06T11:39:39;1.50;;;1.40;;
32365;SDS011;18837;46.832;16.838;2022-07-06T11:42:09;1.60;;;1.50;;
32365;SDS011;18837;46.832;16.838;2022-07-06T11:44:35;1.80;;;1.70;;
32365;SDS011;18837;46.832;16.838;2022-07-06T11:47:03;1.87;;;1.30;;
32365;SDS011;18837;46.832;16.838;2022-07-06T11:49:30;1.93;;;1.50;;
32365;SDS011;18837;46.832;16.838;2022-07-06T11:51:57;1.60;;;1.50;;
32365;SDS011;18837;46.832;16.838;2022-07-06T11:54:23;2.90;;;1.57;;
32365;SDS011;18837;46.832;16.838;2022-07-06T11:56:54;1.97;;;1.30;;
32365;SDS011;18837;46.832;16.838;2022-07-06T11:59:28;1.80;;;1.70;;
32365;SDS011;18837;46.832;16.838;2022-07-06T12:04:25;1.50;;;1.40;;
32365;SDS011;18837;46.832;16.838;2022-07-06T12:06:50;2.57;;;1.73;;
32365;SDS011;18837;46.832;16.838;2022-07-06T12:09:17;1.53;;;1.30;;
32365;SDS011;18837;46.832;16.838;2022-07-06T12:11:45;1.80;;;1.50;;
32365;SDS011;18837;46.832;16.838;2022-07-06T12:14:14;1.30;;;1.20;;
32365;SDS011;18837;46.832;16.838;2022-07-06T12:16:41;1.50;;;1.40;;
32365;SDS011;18837;46.832;16.838;2022-07-06T12:19:07;1.70;;;1.60;;
32365;SDS011;18837;46.832;16.838;2022-07-06T12:21:34;1.50;;;1.40;;
32365;SDS011;18837;46.832;16.838;2022-07-06T12:24:00;1.80;;;1.70;;
32365;SDS011;18837;46.832;16.838;2022-07-06T12:26:26;1.67;;;1.57;;
32365;SDS011;18837;46.832;16.838;2022-07-06T12:29:05;1.47;;;1.37;;
32365;SDS011;18837;46.832;16.838;2022-07-06T12:31:53;1.80;;;1.50;;
32365;SDS011;18837;46.832;16.838;2022-07-06T12:34:28;2.00;;;1.57;;
32365;SDS011;18837;46.832;16.838;2022-07-06T12:37:04;1.73;;;1.63;;
32365;SDS011;18837;46.832;16.838;2022-07-06T12:39:40;1.67;;;1.40;;
32365;SDS011;18837;46.832;16.838;2022-07-06T12:42:07;1.50;;;1.30;;
32365;SDS011;18837;46.832;16.838;2022-07-06T12:44:35;2.40;;;1.80;;
32365;SDS011;18837;46.832;16.838;2022-07-06T12:47:09;3.63;;;1.57;;
32365;SDS011;18837;46.832;16.838;2022-07-06T12:49:38;1.70;;;1.40;;
32365;SDS011;18837;46.832;16.838;2022-07-06T12:52:11;1.60;;;1.50;;
32365;SDS011;18837;46.832;16.838;2022-07-06T12:54:43;1.77;;;1.67;;
32365;SDS011;18837;46.832;16.838;2022-07-06T12:57:15;1.47;;;1.37;;
32365;SDS011;18837;46.832;16.838;2022-07-06T12:59:54;1.57;;;1.47;;
32365;SDS011;18837;46.832;16.838;2022-07-06T13:02:23;1.80;;;1.53;;
32365;SDS011;18837;46.832;16.838;2022-07-06T13:05:01;1.60;;;1.50;;
32365;SDS011;18837;46.832;16.838;2022-07-06T13:07:47;1.50;;;1.40;;
32365;SDS011;18837;46.832;16.838;2022-07-06T13:10:14;1.60;;;1.50;;
32365;SDS011;18837;46.832;16.838;2022-07-06T13:12:40;2.07;;;1.50;;
32365;SDS011;18837;46.832;16.838;2022-07-06T13:15:07;2.67;;;1.63;;
32365;SDS011;18837;46.832;16.838;2022-07-06T13:17:34;1.80;;;1.70;;
32365;SDS011;18837;46.832;16.838;2022-07-06T13:20:02;1.90;;;1.80;;
32365;SDS011;18837;46.832;16.838;2022-07-06T13:22:28;1.50;;;1.40;;
32365;SDS011;18837;46.832;16.838;2022-07-06T13:24:54;2.20;;;1.97;;
32365;SDS011;18837;46.832;16.838;2022-07-06T13:27:20;2.40;;;1.70;;
32365;SDS011;18837;46.832;16.838;2022-07-06T13:29:46;1.63;;;1.53;;
32365;SDS011;18837;46.832;16.838;2022-07-06T13:32:11;1.83;;;1.50;;
32365;SDS011;18837;46.832;16.838;2022-07-06T13:34:37;1.47;;;1.33;;
32365;SDS011;18837;46.832;16.838;2022-07-06T13:37:04;2.73;;;1.87;;
32365;SDS011;18837;46.832;16.838;2022-07-06T13:39:30;1.97;;;1.87;;
32365;SDS011;18837;46.832;16.838;2022-07-06T13:41:56;2.10;;;1.60;;
32365;SDS011;18837;46.832;16.838;2022-07-06T13:44:23;1.77;;;1.40;;
32365;SDS011;18837;46.832;16.838;2022-07-06T13:46:49;2.40;;;1.57;;
32365;SDS011;18837;46.832;16.838;2022-07-06T13:49:15;1.70;;;1.60;;
32365;SDS011;18837;46.832;16.838;2022-07-06T13:51:41;2.73;;;1.60;;
32365;SDS011;18837;46.832;16.838;2022-07-06T13:54:07;2.93;;;1.63;;
32365;SDS011;18837;46.832;16.838;2022-07-06T13:56:33;2.30;;;1.70;;
32365;SDS011;18837;46.832;16.838;2022-07-06T13:58:59;1.67;;;1.50;;
32365;SDS011;18837;46.832;16.838;2022-07-06T14:01:25;1.53;;;1.33;;
32365;SDS011;18837;46.832;16.838;2022-07-06T14:03:51;1.93;;;1.47;;
32365;SDS011;18837;46.832;16.838;2022-07-06T14:06:18;1.50;;;1.40;;
32365;SDS011;18837;46.832;16.838;2022-07-06T14:08:44;3.03;;;1.50;;
32365;SDS011;18837;46.832;16.838;2022-07-06T14:11:10;4.83;;;1.60;;
32365;SDS011;18837;46.832;16.838;2022-07-06T14:13:37;2.97;;;1.40;;
32365;SDS011;18837;46.832;16.838;2022-07-06T14:16:03;4.73;;;1.77;;
32365;SDS011;18837;46.832;16.838;2022-07-06T14:18:29;9.40;;;1.67;;
32365;SDS011;18837;46.832;16.838;2022-07-06T14:20:55;9.53;;;1.80;;
32365;SDS011;18837;46.832;16.838;2022-07-06T14:23:21;10.87;;;1.70;;
32365;SDS011;18837;46.832;16.838;2022-07-06T14:25:48;10.87;;;2.30;;
32365;SDS011;18837;46.832;16.838;2022-07-06T14:28:14;8.83;;;1.80;;
32365;SDS011;18837;46.832;16.838;2022-07-06T14:30:41;11.47;;;1.97;;
32365;SDS011;18837;46.832;16.838;2022-07-06T14:33:14;7.83;;;2.30;;
32365;SDS011;18837;46.832;16.838;2022-07-06T14:35:44;9.17;;;1.60;;
32365;SDS011;18837;46.832;16.838;2022-07-06T14:38:15;7.57;;;1.80;;
32365;SDS011;18837;46.832;16.838;2022-07-06T14:40:41;3.27;;;1.50;;
32365;SDS011;18837;46.832;16.838;2022-07-06T14:43:08;6.90;;;1.83;;
32365;SDS011;18837;46.832;16.838;2022-07-06T14:45:33;3.27;;;1.33;;
32365;SDS011;18837;46.832;16.838;2022-07-06T14:48:00;3.37;;;1.80;;
32365;SDS011;18837;46.832;16.838;2022-07-06T14:50:26;5.07;;;1.77;;
32365;SDS011;18837;46.832;16.838;2022-07-06T14:52:53;3.80;;;1.60;;
32365;SDS011;18837;46.832;16.838;2022-07-06T14:55:21;3.00;;;1.20;;
32365;SDS011;18837;46.832;16.838;2022-07-06T14:57:47;2.50;;;1.30;;
32365;SDS011;18837;46.832;16.838;2022-07-06T15:00:13;2.80;;;1.50;;
32365;SDS011;18837;46.832;16.838;2022-07-06T15:02:40;3.57;;;1.20;;
32365;SDS011;18837;46.832;16.838;2022-07-06T15:05:07;4.60;;;1.63;;
32365;SDS011;18837;46.832;16.838;2022-07-06T15:07:37;1.53;;;1.40;;
32365;SDS011;18837;46.832;16.838;2022-07-06T15:10:03;3.57;;;1.30;;
32365;SDS011;18837;46.832;16.838;2022-07-06T15:12:30;3.63;;;1.20;;
32365;SDS011;18837;46.832;16.838;2022-07-06T15:14:56;1.73;;;1.27;;
32365;SDS011;18837;46.832;16.838;2022-07-06T15:17:22;1.53;;;1.27;;
32365;SDS011;18837;46.832;16.838;2022-07-06T15:19:47;1.73;;;1.30;;
32365;SDS011;18837;46.832;16.838;2022-07-06T15:22:29;2.43;;;1.30;;
32365;SDS011;18837;46.832;16.838;2022-07-06T15:25:00;2.30;;;1.27;;
32365;SDS011;18837;46.832;16.838;2022-07-06T15:27:28;1.10;;;1.00;;
32365;SDS011;18837;46.832;16.838;2022-07-06T15:29:54;5.57;;;1.93;;
32365;SDS011;18837;46.832;16.838;2022-07-06T15:32:21;1.63;;;1.13;;
32365;SDS011;18837;46.832;16.838;2022-07-06T15:34:47;2.17;;;1.43;;
32365;SDS011;18837;46.832;16.838;2022-07-06T15:37:13;2.73;;;1.20;;
32365;SDS011;18837;46.832;16.838;2022-07-06T15:39:39;2.87;;;1.30;;
32365;SDS011;18837;46.832;16.838;2022-07-06T15:42:10;1.57;;;1.27;;
32365;SDS011;18837;46.832;16.838;2022-07-06T15:44:36;2.20;;;1.17;;
32365;SDS011;18837;46.832;16.838;2022-07-06T15:47:05;2.57;;;1.30;;
32365;SDS011;18837;46.832;16.838;2022-07-06T15:49:34;1.73;;;1.30;;
32365;SDS011;18837;46.832;16.838;2022-07-06T15:52:00;2.80;;;1.10;;
32365;SDS011;18837;46.832;16.838;2022-07-06T15:54:26;1.93;;;1.10;;
32365;SDS011;18837;46.832;16.838;2022-07-06T15:56:57;2.60;;;0.90;;
32365;SDS011;18837;46.832;16.838;2022-07-06T15:59:32;1.30;;;1.20;;
32365;SDS011;18837;46.832;16.838;2022-07-06T16:02:00;4.57;;;1.20;;
32365;SDS011;18837;46.832;16.838;2022-07-06T16:04:26;3.67;;;1.33;;
32365;SDS011;18837;46.832;16.838;2022-07-06T16:06:54;5.67;;;1.40;;
32365;SDS011;18837;46.832;16.838;2022-07-06T16:09:19;8.77;;;1.90;;
32365;SDS011;18837;46.832;16.838;2022-07-06T16:11:45;7.70;;;1.73;;
32365;SDS011;18837;46.832;16.838;2022-07-06T16:14:11;9.23;;;2.53;;
32365;SDS011;18837;46.832;16.838;2022-07-06T16:16:43;14.17;;;2.63;;
32365;SDS011;18837;46.832;16.838;2022-07-06T16:19:09;13.00;;;2.60;;
32365;SDS011;18837;46.832;16.838;2022-07-06T16:21:34;16.17;;;2.23;;
32365;SDS011;18837;46.832;16.838;2022-07-06T16:24:00;24.07;;;2.60;;
32365;SDS011;18837;46.832;16.838;2022-07-06T16:26:26;13.83;;;2.70;;
32365;SDS011;18837;46.832;16.838;2022-07-06T16:28:52;10.13;;;2.30;;
32365;SDS011;18837;46.832;16.838;2022-07-06T16:31:17;11.17;;;2.30;;
32365;SDS011;18837;46.832;16.838;2022-07-06T16:34:02;13.60;;;2.70;;
32365;SDS011;18837;46.832;16.838;2022-07-06T16:36:43;9.07;;;2.17;;
32365;SDS011;18837;46.832;16.838;2022-07-06T16:39:09;8.43;;;2.10;;
32365;SDS011;18837;46.832;16.838;2022-07-06T16:41:35;8.37;;;2.30;;
32365;SDS011;18837;46.832;16.838;2022-07-06T16:44:01;7.80;;;2.27;;
32365;SDS011;18837;46.832;16.838;2022-07-06T16:46:28;7.07;;;2.00;;
32365;SDS011;18837;46.832;16.838;2022-07-06T16:48:55;11.93;;;2.10;;
32365;SDS011;18837;46.832;16.838;2022-07-06T16:51:27;6.30;;;2.00;;
32365;SDS011;18837;46.832;16.838;2022-07-06T16:53:52;6.43;;;1.60;;
32365;SDS011;18837;46.832;16.838;2022-07-06T16:56:21;10.20;;;2.47;;
32365;SDS011;18837;46.832;16.838;2022-07-06T16:58:47;5.33;;;1.90;;
32365;SDS011;18837;46.832;16.838;2022-07-06T17:01:13;2.77;;;1.80;;
32365;SDS011;18837;46.832;16.838;2022-07-06T17:03:39;5.73;;;1.80;;
32365;SDS011;18837;46.832;16.838;2022-07-06T17:13:51;3.13;;;1.80;;
32365;SDS011;18837;46.832;16.838;2022-07-06T17:16:19;3.10;;;1.60;;
32365;SDS011;18837;46.832;16.838;2022-07-06T17:18:45;6.30;;;1.40;;
32365;SDS011;18837;46.832;16.838;2022-07-06T17:21:17;2.73;;;1.60;;
32365;SDS011;18837;46.832;16.838;2022-07-06T17:23:43;3.07;;;1.53;;
32365;SDS011;18837;46.832;16.838;2022-07-06T17:26:14;1.90;;;1.30;;
32365;SDS011;18837;46.832;16.838;2022-07-06T17:28:40;1.77;;;1.37;;
32365;SDS011;18837;46.832;16.838;2022-07-06T17:31:06;2.07;;;1.40;;
32365;SDS011;18837;46.832;16.838;2022-07-06T17:33:31;1.60;;;1.50;;
32365;SDS011;18837;46.832;16.838;2022-07-06T17:35:57;2.33;;;1.57;;
32365;SDS011;18837;46.832;16.838;2022-07-06T17:38:24;3.27;;;1.70;;
32365;SDS011;18837;46.832;16.838;2022-07-06T17:40:53;4.03;;;1.67;;
32365;SDS011;18837;46.832;16.838;2022-07-06T17:45:57;6.10;;;2.23;;
32365;SDS011;18837;46.832;16.838;2022-07-06T17:48:23;5.60;;;2.00;;
32365;SDS011;18837;46.832;16.838;2022-07-06T17:50:49;10.27;;;2.30;;
32365;SDS011;18837;46.832;16.838;2022-07-06T17:53:14;6.40;;;2.00;;
32365;SDS011;18837;46.832;16.838;2022-07-06T17:55:40;7.03;;;2.20;;
32365;SDS011;18837;46.832;16.838;2022-07-06T18:00:47;6.13;;;2.10;;
32365;SDS011;18837;46.832;16.838;2022-07-06T18:03:13;4.57;;;1.87;;
32365;SDS011;18837;46.832;16.838;2022-07-06T18:05:39;3.97;;;1.83;;
32365;SDS011;18837;46.832;16.838;2022-07-06T18:08:05;3.70;;;1.80;;
32365;SDS011;18837;46.832;16.838;2022-07-06T18:10:30;3.43;;;2.10;;
32365;SDS011;18837;46.832;16.838;2022-07-06T18:12:57;4.23;;;1.80;;
32365;SDS011;18837;46.832;16.838;2022-07-06T18:20:28;4.60;;;2.17;;
32365;SDS011;18837;46.832;16.838;2022-07-06T18:22:56;3.33;;;2.23;;
32365;SDS011;18837;46.832;16.838;2022-07-06T18:25:21;3.23;;;1.73;;
32365;SDS011;18837;46.832;16.838;2022-07-06T18:27:47;5.13;;;1.83;;
32365;SDS011;18837;46.832;16.838;2022-07-06T18:30:13;4.57;;;1.90;;
32365;SDS011;18837;46.832;16.838;2022-07-06T18:32:38;3.80;;;1.77;;
32365;SDS011;18837;46.832;16.838;2022-07-06T18:35:06;4.37;;;1.87;;
32365;SDS011;18837;46.832;16.838;2022-07-06T18:37:32;2.83;;;1.80;;
32365;SDS011;18837;46.832;16.838;2022-07-06T18:39:58;3.07;;;2.10;;
32365;SDS011;18837;46.832;16.838;2022-07-06T18:42:24;3.03;;;1.50;;
32365;SDS011;18837;46.832;16.838;2022-07-06T18:44:49;2.80;;;1.70;;
32365;SDS011;18837;46.832;16.838;2022-07-06T18:47:15;3.13;;;1.90;;
32365;SDS011;18837;46.832;16.838;2022-07-06T18:49:46;3.53;;;1.77;;
32365;SDS011;18837;46.832;16.838;2022-07-06T18:52:13;2.30;;;2.10;;
32365;SDS011;18837;46.832;16.838;2022-07-06T18:54:51;2.57;;;1.80;;
32365;SDS011;18837;46.832;16.838;2022-07-06T18:57:17;2.33;;;1.70;;
32365;SDS011;18837;46.832;16.838;2022-07-06T18:59:42;1.73;;;1.63;;
32365;SDS011;18837;46.832;16.838;2022-07-06T19:02:08;3.40;;;2.00;;
32365;SDS011;18837;46.832;16.838;2022-07-06T19:04:34;3.40;;;1.87;;
32365;SDS011;18837;46.832;16.838;2022-07-06T19:07:00;4.13;;;1.90;;
32365;SDS011;18837;46.832;16.838;2022-07-06T19:09:31;4.20;;;2.10;;
32365;SDS011;18837;46.832;16.838;2022-07-06T19:11:56;4.93;;;1.63;;
32365;SDS011;18837;46.832;16.838;2022-07-06T19:14:22;2.73;;;1.80;;
32365;SDS011;18837;46.832;16.838;2022-07-06T19:16:50;2.27;;;1.90;;
32365;SDS011;18837;46.832;16.838;2022-07-06T19:19:16;1.90;;;1.80;;
32365;SDS011;18837;46.832;16.838;2022-07-06T19:21:42;1.97;;;1.77;;
32365;SDS011;18837;46.832;16.838;2022-07-06T19:24:07;2.90;;;1.90;;
32365;SDS011;18837;46.832;16.838;2022-07-06T19:26:33;3.43;;;1.90;;
32365;SDS011;18837;46.832;16.838;2022-07-06T19:31:44;1.80;;;1.70;;
32365;SDS011;18837;46.832;16.838;2022-07-06T19:34:10;2.47;;;2.07;;
32365;SDS011;18837;46.832;16.838;2022-07-06T19:36:36;2.47;;;1.80;;